sensor_id;sensor_type;location;lat;lon;timestamp;temperature;humidity
5492;DHT22;2768;53.540;10.224;2022-08-19T00:00:35;20.80;99.90
5492;DHT22;2768;53.540;10.224;2022-08-19T00:06:30;20.40;99.90
5492;DHT22;2768;53.540;10.224;2022-08-19T00:12:23;20.20;99.90
5492;DHT22;2768;53.540;10.224;2022-08-19T00:18:18;20.30;99.90
5492;DHT22;2768;53.540;10.224;2022-08-19T00:24:13;20.30;99.90
5492;DHT22;2768;53.540;10.224;2022-08-19T00:30:08;20.70;99.90
5492;DHT22;2768;53.540;10.224;2022-08-19T00:36:06;20.90;99.90
5492;DHT22;2768;53.540;10.224;2022-08-19T00:42:00;20.90;99.90
5492;DHT22;2768;53.540;10.224;2022-08-19T00:47:54;20.80;99.90
5492;DHT22;2768;53.540;10.224;2022-08-19T00:53:48;20.50;99.90
5492;DHT22;2768;53.540;10.224;2022-08-19T00:59:44;20.10;99.90
5492;DHT22;2768;53.540;10.224;2022-08-19T01:05:54;20.20;99.90
5492;DHT22;2768;53.540;10.224;2022-08-19T01:11:50;20.30;99.90
5492;DHT22;2768;53.540;10.224;2022-08-19T01:17:44;20.60;99.90
5492;DHT22;2768;53.540;10.224;2022-08-19T01:23:40;20.40;99.90
5492;DHT22;2768;53.540;10.224;2022-08-19T01:29:40;20.50;99.90
5492;DHT22;2768;53.540;10.224;2022-08-19T01:35:37;20.40;99.90
5492;DHT22;2768;53.540;10.224;2022-08-19T01:41:31;20.10;99.90
5492;DHT22;2768;53.540;10.224;2022-08-19T01:47:25;20.30;99.90
5492;DHT22;2768;53.540;10.224;2022-08-19T01:53:18;20.40;99.90
5492;DHT22;2768;53.540;10.224;2022-08-19T01:59:17;20.40;99.90
5492;DHT22;2768;53.540;10.224;2022-08-19T02:05:12;20.30;99.90
5492;DHT22;2768;53.540;10.224;2022-08-19T02:11:06;20.40;99.90
5492;DHT22;2768;53.540;10.224;2022-08-19T02:17:01;20.40;99.90
5492;DHT22;2768;53.540;10.224;2022-08-19T02:22:54;20.00;99.90
5492;DHT22;2768;53.540;10.224;2022-08-19T02:28:48;19.90;99.90
5492;DHT22;2768;53.540;10.224;2022-08-19T02:34:42;20.20;99.90
5492;DHT22;2768;53.540;10.224;2022-08-19T02:40:36;20.10;99.90
5492;DHT22;2768;53.540;10.224;2022-08-19T02:46:32;20.10;99.90
5492;DHT22;2768;53.540;10.224;2022-08-19T02:52:26;19.80;99.90
5492;DHT22;2768;53.540;10.224;2022-08-19T02:58:20;20.20;99.90
5492;DHT22;2768;53.540;10.224;2022-08-19T03:04:16;20.30;99.90
5492;DHT22;2768;53.540;10.224;2022-08-19T03:10:10;20.10;99.90
5492;DHT22;2768;53.540;10.224;2022-08-19T03:16:08;20.00;99.90
5492;DHT22;2768;53.540;10.224;2022-08-19T03:22:01;20.30;99.90
5492;DHT22;2768;53.540;10.224;2022-08-19T03:27:57;20.40;99.90
5492;DHT22;2768;53.540;10.224;2022-08-19T03:33:51;20.10;99.90
5492;DHT22;2768;53.540;10.224;2022-08-19T03:39:44;19.60;99.90
5492;DHT22;2768;53.540;10.224;2022-08-19T03:45:39;19.50;99.90
5492;DHT22;2768;53.540;10.224;2022-08-19T03:51:36;19.60;99.90
5492;DHT22;2768;53.540;10.224;2022-08-19T03:57:30;19.70;1.00
5492;DHT22;2768;53.540;10.224;2022-08-19T04:03:26;19.60;1.00
5492;DHT22;2768;53.540;10.224;2022-08-19T04:09:20;19.40;1.00
5492;DHT22;2768;53.540;10.224;2022-08-19T04:15:13;19.30;1.00
5492;DHT22;2768;53.540;10.224;2022-08-19T04:21:08;19.30;1.00
5492;DHT22;2768;53.540;10.224;2022-08-19T04:27:08;19.20;1.00
5492;DHT22;2768;53.540;10.224;2022-08-19T04:33:01;19.30;1.00
5492;DHT22;2768;53.540;10.224;2022-08-19T04:38:57;19.30;1.00
5492;DHT22;2768;53.540;10.224;2022-08-19T04:44:51;19.30;1.00
5492;DHT22;2768;53.540;10.224;2022-08-19T04:50:45;19.60;1.00
5492;DHT22;2768;53.540;10.224;2022-08-19T04:56:40;19.50;1.00
5492;DHT22;2768;53.540;10.224;2022-08-19T05:02:33;19.30;1.00
5492;DHT22;2768;53.540;10.224;2022-08-19T05:08:27;19.30;1.00
5492;DHT22;2768;53.540;10.224;2022-08-19T05:14:23;19.40;1.00
5492;DHT22;2768;53.540;10.224;2022-08-19T05:20:16;19.40;1.00
5492;DHT22;2768;53.540;10.224;2022-08-19T05:26:27;19.30;1.00
5492;DHT22;2768;53.540;10.224;2022-08-19T05:32:22;19.20;1.00
5492;DHT22;2768;53.540;10.224;2022-08-19T05:38:17;19.10;1.00
5492;DHT22;2768;53.540;10.224;2022-08-19T05:44:11;19.10;1.00
5492;DHT22;2768;53.540;10.224;2022-08-19T05:50:07;19.30;1.00
5492;DHT22;2768;53.540;10.224;2022-08-19T05:56:04;19.30;1.00
5492;DHT22;2768;53.540;10.224;2022-08-19T06:01:57;19.40;1.00
5492;DHT22;2768;53.540;10.224;2022-08-19T06:07:54;19.30;1.00
5492;DHT22;2768;53.540;10.224;2022-08-19T06:13:49;19.30;1.00
5492;DHT22;2768;53.540;10.224;2022-08-19T06:19:50;19.20;1.00
5492;DHT22;2768;53.540;10.224;2022-08-19T06:25:45;19.20;1.00
5492;DHT22;2768;53.540;10.224;2022-08-19T06:31:43;19.40;1.00
5492;DHT22;2768;53.540;10.224;2022-08-19T06:37:37;19.60;1.00
5492;DHT22;2768;53.540;10.224;2022-08-19T06:43:35;19.40;1.00
5492;DHT22;2768;53.540;10.224;2022-08-19T06:49:33;19.30;1.00
5492;DHT22;2768;53.540;10.224;2022-08-19T06:55:27;19.40;1.00
5492;DHT22;2768;53.540;10.224;2022-08-19T07:01:25;19.50;1.00
5492;DHT22;2768;53.540;10.224;2022-08-19T07:07:20;19.70;1.00
5492;DHT22;2768;53.540;10.224;2022-08-19T07:13:14;20.00;1.00
5492;DHT22;2768;53.540;10.224;2022-08-19T07:19:09;20.00;1.00
5492;DHT22;2768;53.540;10.224;2022-08-19T07:25:08;20.20;1.00
5492;DHT22;2768;53.540;10.224;2022-08-19T07:31:01;20.30;1.00
5492;DHT22;2768;53.540;10.224;2022-08-19T07:36:58;20.40;1.00
5492;DHT22;2768;53.540;10.224;2022-08-19T07:42:51;20.50;1.00
5492;DHT22;2768;53.540;10.224;2022-08-19T07:48:44;20.50;99.90
5492;DHT22;2768;53.540;10.224;2022-08-19T07:54:40;20.40;99.90
5492;DHT22;2768;53.540;10.224;2022-08-19T08:00:34;20.50;99.90
5492;DHT22;2768;53.540;10.224;2022-08-19T08:06:28;20.50;99.90
5492;DHT22;2768;53.540;10.224;2022-08-19T08:12:40;20.30;99.90
5492;DHT22;2768;53.540;10.224;2022-08-19T08:18:48;20.40;99.90
5492;DHT22;2768;53.540;10.224;2022-08-19T08:24:44;20.50;99.90
5492;DHT22;2768;53.540;10.224;2022-08-19T08:30:38;20.60;99.90
5492;DHT22;2768;53.540;10.224;2022-08-19T08:36:37;20.60;99.90
5492;DHT22;2768;53.540;10.224;2022-08-19T08:42:36;20.60;99.90
5492;DHT22;2768;53.540;10.224;2022-08-19T08:48:46;20.40;99.90
5492;DHT22;2768;53.540;10.224;2022-08-19T08:54:45;20.40;99.90
5492;DHT22;2768;53.540;10.224;2022-08-19T09:00:48;20.50;99.90
5492;DHT22;2768;53.540;10.224;2022-08-19T09:06:50;20.50;99.90
5492;DHT22;2768;53.540;10.224;2022-08-19T09:12:52;20.50;99.90
5492;DHT22;2768;53.540;10.224;2022-08-19T09:18:50;20.40;99.90
5492;DHT22;2768;53.540;10.224;2022-08-19T09:24:46;20.50;99.90
5492;DHT22;2768;53.540;10.224;2022-08-19T09:30:41;20.50;99.90
5492;DHT22;2768;53.540;10.224;2022-08-19T09:36:34;20.50;99.90
5492;DHT22;2768;53.540;10.224;2022-08-19T09:42:32;20.50;99.90
5492;DHT22;2768;53.540;10.224;2022-08-19T09:48:26;20.50;99.90
5492;DHT22;2768;53.540;10.224;2022-08-19T09:54:19;20.50;99.90
5492;DHT22;2768;53.540;10.224;2022-08-19T10:00:20;20.50;1.00
5492;DHT22;2768;53.540;10.224;2022-08-19T10:06:23;20.40;1.00
5492;DHT22;2768;53.540;10.224;2022-08-19T10:12:38;20.50;1.00
5492;DHT22;2768;53.540;10.224;2022-08-19T10:18:32;20.50;1.00
5492;DHT22;2768;53.540;10.224;2022-08-19T10:24:27;20.60;1.00
5492;DHT22;2768;53.540;10.224;2022-08-19T10:30:20;20.70;1.00
5492;DHT22;2768;53.540;10.224;2022-08-19T10:36:18;20.70;1.00
5492;DHT22;2768;53.540;10.224;2022-08-19T10:42:14;20.70;99.90
5492;DHT22;2768;53.540;10.224;2022-08-19T10:48:07;20.60;99.90
5492;DHT22;2768;53.540;10.224;2022-08-19T10:54:07;20.70;1.00
5492;DHT22;2768;53.540;10.224;2022-08-19T11:00:04;20.70;99.90
5492;DHT22;2768;53.540;10.224;2022-08-19T11:05:59;20.80;99.90
5492;DHT22;2768;53.540;10.224;2022-08-19T11:11:54;20.70;99.90
5492;DHT22;2768;53.540;10.224;2022-08-19T11:17:53;20.60;99.90
5492;DHT22;2768;53.540;10.224;2022-08-19T11:23:49;20.60;99.90
5492;DHT22;2768;53.540;10.224;2022-08-19T11:29:45;20.80;99.90
5492;DHT22;2768;53.540;10.224;2022-08-19T11:35:39;20.90;99.90
5492;DHT22;2768;53.540;10.224;2022-08-19T11:41:33;20.90;99.90
5492;DHT22;2768;53.540;10.224;2022-08-19T11:47:27;20.80;99.90
5492;DHT22;2768;53.540;10.224;2022-08-19T11:53:23;20.80;99.90
5492;DHT22;2768;53.540;10.224;2022-08-19T11:59:16;20.70;99.90
5492;DHT22;2768;53.540;10.224;2022-08-19T12:05:11;20.70;99.90
5492;DHT22;2768;53.540;10.224;2022-08-19T12:11:05;20.80;99.90
5492;DHT22;2768;53.540;10.224;2022-08-19T12:16:59;21.00;99.90
5492;DHT22;2768;53.540;10.224;2022-08-19T12:22:55;21.20;99.90
5492;DHT22;2768;53.540;10.224;2022-08-19T12:28:49;21.30;99.90
5492;DHT22;2768;53.540;10.224;2022-08-19T12:34:42;21.30;99.90
5492;DHT22;2768;53.540;10.224;2022-08-19T12:40:38;21.30;99.90
5492;DHT22;2768;53.540;10.224;2022-08-19T12:46:32;21.40;99.90
5492;DHT22;2768;53.540;10.224;2022-08-19T12:52:25;21.40;99.90
5492;DHT22;2768;53.540;10.224;2022-08-19T12:58:20;21.50;99.90
5492;DHT22;2768;53.540;10.224;2022-08-19T13:04:18;21.60;99.90
5492;DHT22;2768;53.540;10.224;2022-08-19T13:10:15;22.20;99.90
5492;DHT22;2768;53.540;10.224;2022-08-19T13:16:11;22.80;99.90
5492;DHT22;2768;53.540;10.224;2022-08-19T13:22:05;23.00;99.90
5492;DHT22;2768;53.540;10.224;2022-08-19T13:28:05;22.90;99.90
5492;DHT22;2768;53.540;10.224;2022-08-19T13:33:59;22.70;99.90
5492;DHT22;2768;53.540;10.224;2022-08-19T13:39:53;22.60;99.90
5492;DHT22;2768;53.540;10.224;2022-08-19T13:45:46;22.70;99.90
5492;DHT22;2768;53.540;10.224;2022-08-19T13:51:42;22.80;99.90
5492;DHT22;2768;53.540;10.224;2022-08-19T13:57:35;22.70;99.90
5492;DHT22;2768;53.540;10.224;2022-08-19T14:03:31;22.90;99.90
5492;DHT22;2768;53.540;10.224;2022-08-19T14:09:27;23.40;99.90
5492;DHT22;2768;53.540;10.224;2022-08-19T14:15:21;23.80;99.90
5492;DHT22;2768;53.540;10.224;2022-08-19T14:21:16;23.50;99.90
5492;DHT22;2768;53.540;10.224;2022-08-19T14:27:11;23.40;99.90
5492;DHT22;2768;53.540;10.224;2022-08-19T14:33:06;23.10;99.90
5492;DHT22;2768;53.540;10.224;2022-08-19T14:39:00;23.00;99.90
5492;DHT22;2768;53.540;10.224;2022-08-19T14:44:57;23.00;99.90
5492;DHT22;2768;53.540;10.224;2022-08-19T14:50:50;22.90;99.90
5492;DHT22;2768;53.540;10.224;2022-08-19T14:56:44;22.80;99.90
5492;DHT22;2768;53.540;10.224;2022-08-19T15:02:39;22.80;99.90
5492;DHT22;2768;53.540;10.224;2022-08-19T15:08:34;22.80;99.90
5492;DHT22;2768;53.540;10.224;2022-08-19T15:14:28;22.80;99.90
5492;DHT22;2768;53.540;10.224;2022-08-19T15:20:28;22.80;99.90
5492;DHT22;2768;53.540;10.224;2022-08-19T15:26:22;22.80;99.90
5492;DHT22;2768;53.540;10.224;2022-08-19T15:32:16;22.80;99.90
5492;DHT22;2768;53.540;10.224;2022-08-19T15:38:12;22.70;99.90
5492;DHT22;2768;53.540;10.224;2022-08-19T15:44:07;22.70;99.90
5492;DHT22;2768;53.540;10.224;2022-08-19T15:50:03;22.90;99.90
5492;DHT22;2768;53.540;10.224;2022-08-19T15:56:03;23.00;99.90
5492;DHT22;2768;53.540;10.224;2022-08-19T16:01:56;23.00;99.90
5492;DHT22;2768;53.540;10.224;2022-08-19T16:08:07;23.10;99.90
5492;DHT22;2768;53.540;10.224;2022-08-19T16:14:02;23.10;99.90
5492;DHT22;2768;53.540;10.224;2022-08-19T16:19:58;23.10;99.90
5492;DHT22;2768;53.540;10.224;2022-08-19T16:25:51;23.00;99.90
5492;DHT22;2768;53.540;10.224;2022-08-19T16:31:46;23.00;99.90
5492;DHT22;2768;53.540;10.224;2022-08-19T16:37:40;23.00;99.90
5492;DHT22;2768;53.540;10.224;2022-08-19T16:43:34;23.00;99.90
5492;DHT22;2768;53.540;10.224;2022-08-19T16:49:31;23.00;99.90
5492;DHT22;2768;53.540;10.224;2022-08-19T16:55:46;23.00;99.90
5492;DHT22;2768;53.540;10.224;2022-08-19T17:01:41;23.00;99.90
5492;DHT22;2768;53.540;10.224;2022-08-19T17:07:36;23.00;99.90
5492;DHT22;2768;53.540;10.224;2022-08-19T17:13:30;23.00;99.90
5492;DHT22;2768;53.540;10.224;2022-08-19T17:19:23;22.90;99.90
5492;DHT22;2768;53.540;10.224;2022-08-19T17:25:18;22.90;99.90
5492;DHT22;2768;53.540;10.224;2022-08-19T17:31:11;22.80;99.90
5492;DHT22;2768;53.540;10.224;2022-08-19T17:37:04;22.70;99.90
5492;DHT22;2768;53.540;10.224;2022-08-19T17:42:59;22.60;99.90
5492;DHT22;2768;53.540;10.224;2022-08-19T17:48:52;22.60;99.90
5492;DHT22;2768;53.540;10.224;2022-08-19T17:54:48;22.50;99.90
5492;DHT22;2768;53.540;10.224;2022-08-19T18:00:42;22.50;99.90
5492;DHT22;2768;53.540;10.224;2022-08-19T18:06:45;22.40;99.90
5492;DHT22;2768;53.540;10.224;2022-08-19T18:12:44;22.30;99.90
5492;DHT22;2768;53.540;10.224;2022-08-19T18:18:40;22.30;99.90
5492;DHT22;2768;53.540;10.224;2022-08-19T18:24:36;22.20;99.90
5492;DHT22;2768;53.540;10.224;2022-08-19T18:30:31;22.10;99.90
5492;DHT22;2768;53.540;10.224;2022-08-19T18:36:26;22.00;99.90
5492;DHT22;2768;53.540;10.224;2022-08-19T18:42:41;21.90;99.90
5492;DHT22;2768;53.540;10.224;2022-08-19T18:48:52;21.90;99.90
5492;DHT22;2768;53.540;10.224;2022-08-19T18:55:00;21.80;99.90
5492;DHT22;2768;53.540;10.224;2022-08-19T19:00:54;21.80;99.90
5492;DHT22;2768;53.540;10.224;2022-08-19T19:06:48;21.60;99.90
5492;DHT22;2768;53.540;10.224;2022-08-19T19:12:43;21.50;99.90
5492;DHT22;2768;53.540;10.224;2022-08-19T19:18:36;21.50;99.90
5492;DHT22;2768;53.540;10.224;2022-08-19T19:24:31;21.50;99.90
5492;DHT22;2768;53.540;10.224;2022-08-19T19:30:26;21.40;99.90
5492;DHT22;2768;53.540;10.224;2022-08-19T19:36:22;21.20;99.90
5492;DHT22;2768;53.540;10.224;2022-08-19T19:42:18;21.10;99.90
5492;DHT22;2768;53.540;10.224;2022-08-19T19:48:14;21.00;99.90
5492;DHT22;2768;53.540;10.224;2022-08-19T19:54:09;20.90;99.90
5492;DHT22;2768;53.540;10.224;2022-08-19T20:00:05;20.80;99.90
5492;DHT22;2768;53.540;10.224;2022-08-19T20:06:01;20.70;99.90
5492;DHT22;2768;53.540;10.224;2022-08-19T20:11:55;20.60;99.90
5492;DHT22;2768;53.540;10.224;2022-08-19T20:17:49;20.50;99.90
5492;DHT22;2768;53.540;10.224;2022-08-19T20:23:44;20.30;99.90
5492;DHT22;2768;53.540;10.224;2022-08-19T20:29:58;20.30;99.90
5492;DHT22;2768;53.540;10.224;2022-08-19T20:35:54;20.30;99.90
5492;DHT22;2768;53.540;10.224;2022-08-19T20:41:51;20.20;99.90
5492;DHT22;2768;53.540;10.224;2022-08-19T20:47:48;20.10;99.90
5492;DHT22;2768;53.540;10.224;2022-08-19T20:53:43;20.00;99.90
5492;DHT22;2768;53.540;10.224;2022-08-19T20:59:40;19.90;99.90
5492;DHT22;2768;53.540;10.224;2022-08-19T21:05:35;20.00;99.90
5492;DHT22;2768;53.540;10.224;2022-08-19T21:11:29;20.00;99.90
5492;DHT22;2768;53.540;10.224;2022-08-19T21:17:24;19.80;99.90
5492;DHT22;2768;53.540;10.224;2022-08-19T21:23:20;19.70;99.90
5492;DHT22;2768;53.540;10.224;2022-08-19T21:29:14;19.80;99.90
5492;DHT22;2768;53.540;10.224;2022-08-19T21:35:11;19.90;99.90
5492;DHT22;2768;53.540;10.224;2022-08-19T21:41:07;19.70;99.90
5492;DHT22;2768;53.540;10.224;2022-08-19T21:47:05;19.50;99.90
5492;DHT22;2768;53.540;10.224;2022-08-19T21:53:03;19.50;99.90
5492;DHT22;2768;53.540;10.224;2022-08-19T21:58:57;19.60;99.90
5492;DHT22;2768;53.540;10.224;2022-08-19T22:04:54;19.60;99.90
5492;DHT22;2768;53.540;10.224;2022-08-19T22:10:54;19.40;99.90
5492;DHT22;2768;53.540;10.224;2022-08-19T22:16:53;19.60;99.90
5492;DHT22;2768;53.540;10.224;2022-08-19T22:22:50;19.60;99.90
5492;DHT22;2768;53.540;10.224;2022-08-19T22:28:51;19.40;99.90
5492;DHT22;2768;53.540;10.224;2022-08-19T22:34:50;19.50;99.90
5492;DHT22;2768;53.540;10.224;2022-08-19T22:40:53;19.30;99.90
5492;DHT22;2768;53.540;10.224;2022-08-19T22:46:54;19.30;99.90
5492;DHT22;2768;53.540;10.224;2022-08-19T22:52:54;19.20;99.90
5492;DHT22;2768;53.540;10.224;2022-08-19T22:58:49;19.40;99.90
5492;DHT22;2768;53.540;10.224;2022-08-19T23:04:49;19.10;99.90
5492;DHT22;2768;53.540;10.224;2022-08-19T23:10:44;19.10;99.90
5492;DHT22;2768;53.540;10.224;2022-08-19T23:16:42;19.00;99.90
5492;DHT22;2768;53.540;10.224;2022-08-19T23:22:45;19.00;99.90
5492;DHT22;2768;53.540;10.224;2022-08-19T23:28:40;18.90;99.90
5492;DHT22;2768;53.540;10.224;2022-08-19T23:34:53;18.90;99.90
5492;DHT22;2768;53.540;10.224;2022-08-19T23:40:52;19.00;99.90
5492;DHT22;2768;53.540;10.224;2022-08-19T23:46:49;18.90;99.90
5492;DHT22;2768;53.540;10.224;2022-08-19T23:52:51;19.00;99.90
5492;DHT22;2768;53.540;10.224;2022-08-19T23:58:49;18.80;99.90
